sensor_id;sensor_type;location;lat;lon;timestamp;pressure;altitude;pressure_sealevel;temperature;humidity
21401;BME280;18038;50.166;18.908;2022-07-19T00:00:21;98622.47;;;15.46;53.78
21401;BME280;18038;50.166;18.908;2022-07-19T00:03:28;98614.44;;;15.40;54.01
21401;BME280;18038;50.166;18.908;2022-07-19T00:06:34;98625.81;;;15.42;53.94
21401;BME280;18038;50.166;18.908;2022-07-19T00:09:40;98625.19;;;15.40;53.82
21401;BME280;18038;50.166;18.908;2022-07-19T00:13:01;98620.84;;;15.45;54.03
21401;BME280;18038;50.166;18.908;2022-07-19T00:16:15;98624.88;;;15.75;53.69
21401;BME280;18038;50.166;18.908;2022-07-19T00:19:21;98630.19;;;15.95;52.93
21401;BME280;18038;50.166;18.908;2022-07-19T00:22:27;98633.28;;;15.98;53.04
21401;BME280;18038;50.166;18.908;2022-07-19T00:25:39;98630.44;;;15.73;53.76
21401;BME280;18038;50.166;18.908;2022-07-19T00:28:44;98622.19;;;15.75;53.72
21401;BME280;18038;50.166;18.908;2022-07-19T00:31:53;98628.38;;;15.82;53.45
21401;BME280;18038;50.166;18.908;2022-07-19T00:34:59;98621.25;;;15.94;53.63
21401;BME280;18038;50.166;18.908;2022-07-19T00:38:05;98626.06;;;15.92;53.27
21401;BME280;18038;50.166;18.908;2022-07-19T00:41:13;98626.72;;;15.81;53.66
21401;BME280;18038;50.166;18.908;2022-07-19T00:44:21;98618.47;;;15.69;54.10
21401;BME280;18038;50.166;18.908;2022-07-19T00:47:32;98619.50;;;15.68;54.50
21401;BME280;18038;50.166;18.908;2022-07-19T00:50:44;98621.16;;;15.69;54.16
21401;BME280;18038;50.166;18.908;2022-07-19T00:54:00;98620.53;;;15.67;54.01
21401;BME280;18038;50.166;18.908;2022-07-19T00:57:15;98627.41;;;15.63;54.67
21401;BME280;18038;50.166;18.908;2022-07-19T01:00:31;98629.25;;;15.69;54.23
21401;BME280;18038;50.166;18.908;2022-07-19T01:04:04;98618.03;;;15.72;54.46
21401;BME280;18038;50.166;18.908;2022-07-19T01:07:13;98619.25;;;15.83;53.94
21401;BME280;18038;50.166;18.908;2022-07-19T01:10:18;98625.00;;;15.93;53.49
21401;BME280;18038;50.166;18.908;2022-07-19T01:13:26;98627.09;;;15.91;53.78
21401;BME280;18038;50.166;18.908;2022-07-19T01:16:32;98628.59;;;15.80;53.74
21401;BME280;18038;50.166;18.908;2022-07-19T01:19:41;98614.16;;;15.55;54.72
21401;BME280;18038;50.166;18.908;2022-07-19T01:22:49;98621.88;;;15.44;55.05
21401;BME280;18038;50.166;18.908;2022-07-19T01:25:55;98628.09;;;15.38;55.49
21401;BME280;18038;50.166;18.908;2022-07-19T01:29:03;98628.09;;;15.38;55.29
21401;BME280;18038;50.166;18.908;2022-07-19T01:32:12;98620.78;;;15.52;54.77
21401;BME280;18038;50.166;18.908;2022-07-19T01:35:20;98617.84;;;15.67;54.90
21401;BME280;18038;50.166;18.908;2022-07-19T01:38:30;98627.22;;;15.51;55.03
21401;BME280;18038;50.166;18.908;2022-07-19T01:41:37;98621.44;;;15.48;55.20
21401;BME280;18038;50.166;18.908;2022-07-19T01:44:42;98626.19;;;15.52;55.36
21401;BME280;18038;50.166;18.908;2022-07-19T01:47:49;98613.53;;;15.59;54.58
21401;BME280;18038;50.166;18.908;2022-07-19T01:50:54;98615.47;;;15.39;55.69
21401;BME280;18038;50.166;18.908;2022-07-19T01:54:03;98619.06;;;15.06;56.11
21401;BME280;18038;50.166;18.908;2022-07-19T01:57:09;98609.34;;;14.98;56.43
21401;BME280;18038;50.166;18.908;2022-07-19T02:00:15;98615.38;;;14.80;57.30
21401;BME280;18038;50.166;18.908;2022-07-19T02:03:23;98617.44;;;14.85;57.21
21401;BME280;18038;50.166;18.908;2022-07-19T02:06:29;98620.53;;;15.02;57.10
21401;BME280;18038;50.166;18.908;2022-07-19T02:09:38;98622.16;;;15.16;56.93
21401;BME280;18038;50.166;18.908;2022-07-19T02:12:50;98625.00;;;15.28;56.08
21401;BME280;18038;50.166;18.908;2022-07-19T02:15:59;98625.44;;;15.32;56.04
21401;BME280;18038;50.166;18.908;2022-07-19T02:19:12;98626.88;;;15.28;56.05
21401;BME280;18038;50.166;18.908;2022-07-19T02:22:19;98621.72;;;15.19;55.47
21401;BME280;18038;50.166;18.908;2022-07-19T02:25:27;98637.69;;;15.21;55.50
21401;BME280;18038;50.166;18.908;2022-07-19T02:28:36;98630.59;;;15.40;55.02
21401;BME280;18038;50.166;18.908;2022-07-19T02:31:49;98629.09;;;15.51;55.21
21401;BME280;18038;50.166;18.908;2022-07-19T02:34:55;98622.66;;;15.58;55.02
21401;BME280;18038;50.166;18.908;2022-07-19T02:38:08;98622.84;;;15.63;54.84
21401;BME280;18038;50.166;18.908;2022-07-19T02:41:25;98626.75;;;15.67;54.74
21401;BME280;18038;50.166;18.908;2022-07-19T02:44:31;98625.09;;;15.66;55.29
21401;BME280;18038;50.166;18.908;2022-07-19T02:47:40;98617.66;;;15.68;55.16
21401;BME280;18038;50.166;18.908;2022-07-19T02:50:46;98620.34;;;15.68;55.01
21401;BME280;18038;50.166;18.908;2022-07-19T02:54:18;98633.78;;;15.75;54.76
21401;BME280;18038;50.166;18.908;2022-07-19T02:57:27;98632.53;;;15.78;54.88
21401;BME280;18038;50.166;18.908;2022-07-19T03:00:33;98631.25;;;15.87;53.96
21401;BME280;18038;50.166;18.908;2022-07-19T03:03:41;98623.59;;;15.84;53.32
21401;BME280;18038;50.166;18.908;2022-07-19T03:06:49;98622.81;;;15.77;51.97
21401;BME280;18038;50.166;18.908;2022-07-19T03:09:55;98620.34;;;15.68;52.50
21401;BME280;18038;50.166;18.908;2022-07-19T03:13:10;98619.34;;;15.63;54.24
21401;BME280;18038;50.166;18.908;2022-07-19T03:16:29;98633.00;;;15.61;53.66
21401;BME280;18038;50.166;18.908;2022-07-19T03:19:37;98641.78;;;15.37;54.17
21401;BME280;18038;50.166;18.908;2022-07-19T03:22:44;98640.59;;;15.06;55.68
21401;BME280;18038;50.166;18.908;2022-07-19T03:25:50;98639.38;;;14.89;56.39
21401;BME280;18038;50.166;18.908;2022-07-19T03:28:58;98642.91;;;14.89;56.58
21401;BME280;18038;50.166;18.908;2022-07-19T03:32:25;98652.41;;;14.78;57.77
21401;BME280;18038;50.166;18.908;2022-07-19T03:35:31;98641.63;;;14.78;57.94
21401;BME280;18038;50.166;18.908;2022-07-19T03:38:37;98649.72;;;14.92;57.44
21401;BME280;18038;50.166;18.908;2022-07-19T03:41:45;98655.91;;;15.12;57.24
21401;BME280;18038;50.166;18.908;2022-07-19T03:44:53;98654.44;;;15.16;56.49
21401;BME280;18038;50.166;18.908;2022-07-19T03:47:59;98656.09;;;15.17;55.45
21401;BME280;18038;50.166;18.908;2022-07-19T03:51:05;98660.44;;;15.32;55.84
21401;BME280;18038;50.166;18.908;2022-07-19T03:54:11;98660.97;;;15.60;55.11
21401;BME280;18038;50.166;18.908;2022-07-19T03:57:17;98654.28;;;15.70;54.80
21401;BME280;18038;50.166;18.908;2022-07-19T04:00:25;98652.00;;;15.73;53.93
21401;BME280;18038;50.166;18.908;2022-07-19T04:03:39;98662.41;;;15.76;52.92
21401;BME280;18038;50.166;18.908;2022-07-19T04:06:44;98673.16;;;15.76;53.09
21401;BME280;18038;50.166;18.908;2022-07-19T04:09:57;98672.75;;;15.79;53.28
21401;BME280;18038;50.166;18.908;2022-07-19T04:13:09;98659.41;;;15.91;52.70
21401;BME280;18038;50.166;18.908;2022-07-19T04:16:20;98661.47;;;15.89;52.70
21401;BME280;18038;50.166;18.908;2022-07-19T04:19:25;98666.25;;;15.94;52.39
21401;BME280;18038;50.166;18.908;2022-07-19T04:22:31;98665.56;;;16.05;52.69
21401;BME280;18038;50.166;18.908;2022-07-19T04:25:40;98664.66;;;16.18;51.69
21401;BME280;18038;50.166;18.908;2022-07-19T04:28:47;98668.34;;;16.23;52.28
21401;BME280;18038;50.166;18.908;2022-07-19T04:31:55;98663.72;;;16.37;51.37
21401;BME280;18038;50.166;18.908;2022-07-19T04:35:05;98666.53;;;16.17;52.98
21401;BME280;18038;50.166;18.908;2022-07-19T04:38:12;98661.72;;;15.81;55.07
21401;BME280;18038;50.166;18.908;2022-07-19T04:41:20;98662.03;;;15.53;55.96
21401;BME280;18038;50.166;18.908;2022-07-19T04:44:29;98656.72;;;15.19;57.60
21401;BME280;18038;50.166;18.908;2022-07-19T04:47:43;98659.63;;;15.05;59.02
21401;BME280;18038;50.166;18.908;2022-07-19T04:50:49;98657.56;;;14.93;60.39
21401;BME280;18038;50.166;18.908;2022-07-19T04:53:54;98654.03;;;14.66;60.84
21401;BME280;18038;50.166;18.908;2022-07-19T04:57:00;98657.13;;;14.70;61.97
21401;BME280;18038;50.166;18.908;2022-07-19T05:00:09;98660.06;;;14.82;61.32
21401;BME280;18038;50.166;18.908;2022-07-19T05:03:25;98652.63;;;14.90;61.11
21401;BME280;18038;50.166;18.908;2022-07-19T05:06:35;98646.19;;;15.11;59.74
21401;BME280;18038;50.166;18.908;2022-07-19T05:09:44;98656.53;;;15.21;59.10
21401;BME280;18038;50.166;18.908;2022-07-19T05:13:23;98667.66;;;16.03;57.06
21401;BME280;18038;50.166;18.908;2022-07-19T05:16:29;98660.13;;;17.00;52.73
21401;BME280;18038;50.166;18.908;2022-07-19T05:19:37;98661.31;;;18.33;49.48
21401;BME280;18038;50.166;18.908;2022-07-19T05:22:44;98668.69;;;19.33;47.44
21401;BME280;18038;50.166;18.908;2022-07-19T05:25:57;98665.63;;;20.51;42.58
21401;BME280;18038;50.166;18.908;2022-07-19T05:29:06;98665.84;;;21.34;40.90
21401;BME280;18038;50.166;18.908;2022-07-19T05:32:12;98664.81;;;21.35;38.81
21401;BME280;18038;50.166;18.908;2022-07-19T05:35:21;98668.03;;;21.93;37.07
21401;BME280;18038;50.166;18.908;2022-07-19T05:38:27;98656.50;;;22.08;36.41
21401;BME280;18038;50.166;18.908;2022-07-19T05:41:36;98655.09;;;22.05;37.06
21401;BME280;18038;50.166;18.908;2022-07-19T05:44:42;98653.09;;;22.44;36.62
21401;BME280;18038;50.166;18.908;2022-07-19T05:47:48;98647.41;;;21.97;36.48
21401;BME280;18038;50.166;18.908;2022-07-19T05:50:57;98650.28;;;22.66;35.40
21401;BME280;18038;50.166;18.908;2022-07-19T05:54:04;98652.38;;;23.24;34.98
21401;BME280;18038;50.166;18.908;2022-07-19T05:57:10;98645.16;;;24.13;33.97
21401;BME280;18038;50.166;18.908;2022-07-19T06:00:15;98648.03;;;24.84;32.74
21401;BME280;18038;50.166;18.908;2022-07-19T06:03:21;98650.81;;;23.38;34.78
21401;BME280;18038;50.166;18.908;2022-07-19T06:06:32;98650.84;;;22.69;36.09
21401;BME280;18038;50.166;18.908;2022-07-19T06:09:38;98653.28;;;22.97;35.78
21401;BME280;18038;50.166;18.908;2022-07-19T06:12:50;98643.97;;;22.93;35.93
21401;BME280;18038;50.166;18.908;2022-07-19T06:15:56;98644.69;;;23.58;34.59
21401;BME280;18038;50.166;18.908;2022-07-19T06:19:02;98654.00;;;23.25;36.00
21401;BME280;18038;50.166;18.908;2022-07-19T06:22:15;98650.56;;;23.92;35.20
21401;BME280;18038;50.166;18.908;2022-07-19T06:25:21;98646.38;;;24.68;33.02
21401;BME280;18038;50.166;18.908;2022-07-19T06:28:27;98639.81;;;24.95;32.41
21401;BME280;18038;50.166;18.908;2022-07-19T06:31:41;98644.72;;;24.42;32.72
21401;BME280;18038;50.166;18.908;2022-07-19T06:34:46;98646.34;;;24.53;33.55
21401;BME280;18038;50.166;18.908;2022-07-19T06:37:57;98638.72;;;25.11;32.41
21401;BME280;18038;50.166;18.908;2022-07-19T06:41:10;98642.00;;;24.98;33.32
21401;BME280;18038;50.166;18.908;2022-07-19T06:44:16;98645.53;;;25.24;32.58
21401;BME280;18038;50.166;18.908;2022-07-19T06:47:21;98645.91;;;26.32;31.11
21401;BME280;18038;50.166;18.908;2022-07-19T06:50:27;98654.88;;;26.82;31.49
21401;BME280;18038;50.166;18.908;2022-07-19T06:53:45;98641.13;;;27.70;28.32
21401;BME280;18038;50.166;18.908;2022-07-19T06:56:51;98650.13;;;27.75;28.45
21401;BME280;18038;50.166;18.908;2022-07-19T06:59:57;98643.44;;;28.62;26.91
21401;BME280;18038;50.166;18.908;2022-07-19T07:03:03;98649.78;;;28.63;27.97
21401;BME280;18038;50.166;18.908;2022-07-19T07:06:09;98652.44;;;29.75;26.08
21401;BME280;18038;50.166;18.908;2022-07-19T07:09:17;98654.66;;;30.50;25.35
21401;BME280;18038;50.166;18.908;2022-07-19T07:12:23;98649.91;;;31.41;24.12
21401;BME280;18038;50.166;18.908;2022-07-19T07:15:28;98651.91;;;30.50;23.92
21401;BME280;18038;50.166;18.908;2022-07-19T07:18:34;98648.91;;;30.83;23.95
21401;BME280;18038;50.166;18.908;2022-07-19T07:21:40;98645.06;;;31.47;22.79
21401;BME280;18038;50.166;18.908;2022-07-19T07:24:49;98636.75;;;31.78;22.47
21401;BME280;18038;50.166;18.908;2022-07-19T07:27:55;98644.16;;;31.29;23.13
21401;BME280;18038;50.166;18.908;2022-07-19T07:31:01;98641.34;;;30.30;23.96
21401;BME280;18038;50.166;18.908;2022-07-19T07:34:06;98648.25;;;31.71;24.15
21401;BME280;18038;50.166;18.908;2022-07-19T07:37:12;98653.41;;;30.79;24.98
21401;BME280;18038;50.166;18.908;2022-07-19T07:40:20;98653.91;;;31.04;24.21
21401;BME280;18038;50.166;18.908;2022-07-19T07:43:26;98643.22;;;31.73;23.14
21401;BME280;18038;50.166;18.908;2022-07-19T07:46:32;98646.00;;;31.73;22.48
21401;BME280;18038;50.166;18.908;2022-07-19T07:49:39;98647.56;;;32.32;21.22
21401;BME280;18038;50.166;18.908;2022-07-19T07:52:45;98644.88;;;33.31;20.17
21401;BME280;18038;50.166;18.908;2022-07-19T07:55:53;98646.94;;;33.81;18.50
21401;BME280;18038;50.166;18.908;2022-07-19T07:59:07;98640.91;;;34.09;18.77
21401;BME280;18038;50.166;18.908;2022-07-19T08:02:12;98636.31;;;33.06;19.15
21401;BME280;18038;50.166;18.908;2022-07-19T08:05:20;98634.06;;;32.56;20.55
21401;BME280;18038;50.166;18.908;2022-07-19T08:08:27;98642.47;;;33.03;20.54
21401;BME280;18038;50.166;18.908;2022-07-19T08:11:35;98631.13;;;33.82;19.38
21401;BME280;18038;50.166;18.908;2022-07-19T08:14:41;98642.06;;;33.78;19.47
21401;BME280;18038;50.166;18.908;2022-07-19T08:17:47;98631.31;;;34.27;19.22
21401;BME280;18038;50.166;18.908;2022-07-19T08:20:53;98630.56;;;34.60;19.12
21401;BME280;18038;50.166;18.908;2022-07-19T08:23:59;98627.59;;;34.23;18.74
21401;BME280;18038;50.166;18.908;2022-07-19T08:27:14;98631.59;;;34.34;17.82
21401;BME280;18038;50.166;18.908;2022-07-19T08:30:20;98629.44;;;34.40;16.98
21401;BME280;18038;50.166;18.908;2022-07-19T08:33:45;98632.75;;;34.54;17.47
21401;BME280;18038;50.166;18.908;2022-07-19T08:36:51;98633.63;;;35.00;15.92
21401;BME280;18038;50.166;18.908;2022-07-19T08:40:00;98630.78;;;35.34;16.53
21401;BME280;18038;50.166;18.908;2022-07-19T08:43:39;98634.94;;;34.82;16.65
21401;BME280;18038;50.166;18.908;2022-07-19T08:46:46;98635.84;;;33.43;17.61
21401;BME280;18038;50.166;18.908;2022-07-19T08:49:58;98634.69;;;32.88;18.82
21401;BME280;18038;50.166;18.908;2022-07-19T08:53:15;98630.78;;;34.13;18.65
21401;BME280;18038;50.166;18.908;2022-07-19T08:56:21;98630.31;;;34.32;17.69
21401;BME280;18038;50.166;18.908;2022-07-19T08:59:42;98624.25;;;33.88;17.63
21401;BME280;18038;50.166;18.908;2022-07-19T09:02:55;98630.56;;;34.39;17.27
21401;BME280;18038;50.166;18.908;2022-07-19T09:06:05;98630.94;;;34.71;17.22
21401;BME280;18038;50.166;18.908;2022-07-19T09:09:12;98618.72;;;32.94;17.48
21401;BME280;18038;50.166;18.908;2022-07-19T09:12:19;98626.09;;;32.11;18.53
21401;BME280;18038;50.166;18.908;2022-07-19T09:15:42;98617.72;;;31.59;18.67
21401;BME280;18038;50.166;18.908;2022-07-19T09:19:03;98624.81;;;32.70;19.19
21401;BME280;18038;50.166;18.908;2022-07-19T09:22:11;98633.31;;;33.29;18.50
21401;BME280;18038;50.166;18.908;2022-07-19T09:25:32;98627.25;;;33.74;18.99
21401;BME280;18038;50.166;18.908;2022-07-19T09:28:42;98620.22;;;34.48;17.53
21401;BME280;18038;50.166;18.908;2022-07-19T09:32:01;98615.63;;;34.86;18.04
21401;BME280;18038;50.166;18.908;2022-07-19T09:35:11;98608.91;;;35.20;16.80
21401;BME280;18038;50.166;18.908;2022-07-19T09:38:24;98616.34;;;34.95;17.34
21401;BME280;18038;50.166;18.908;2022-07-19T09:41:31;98604.88;;;35.42;16.18
21401;BME280;18038;50.166;18.908;2022-07-19T09:44:37;98608.44;;;34.72;16.42
21401;BME280;18038;50.166;18.908;2022-07-19T09:47:48;98610.75;;;35.03;16.28
21401;BME280;18038;50.166;18.908;2022-07-19T09:50:54;98600.06;;;34.93;16.38
21401;BME280;18038;50.166;18.908;2022-07-19T09:54:02;98606.28;;;34.57;16.58
21401;BME280;18038;50.166;18.908;2022-07-19T09:57:09;98601.22;;;33.37;17.76
21401;BME280;18038;50.166;18.908;2022-07-19T10:00:17;98595.06;;;33.31;17.45
21401;BME280;18038;50.166;18.908;2022-07-19T10:03:41;98596.94;;;33.78;17.62
21401;BME280;18038;50.166;18.908;2022-07-19T10:06:54;98597.09;;;34.23;19.38
21401;BME280;18038;50.166;18.908;2022-07-19T10:10:01;98602.63;;;33.81;18.01
21401;BME280;18038;50.166;18.908;2022-07-19T10:13:09;98597.22;;;34.48;17.72
21401;BME280;18038;50.166;18.908;2022-07-19T10:16:36;98597.25;;;34.27;18.14
21401;BME280;18038;50.166;18.908;2022-07-19T10:19:55;98585.28;;;34.56;17.35
21401;BME280;18038;50.166;18.908;2022-07-19T10:23:06;98585.13;;;34.86;16.71
21401;BME280;18038;50.166;18.908;2022-07-19T10:26:33;98587.47;;;34.08;16.61
21401;BME280;18038;50.166;18.908;2022-07-19T10:29:39;98583.00;;;33.65;16.77
21401;BME280;18038;50.166;18.908;2022-07-19T10:32:47;98580.78;;;31.55;18.71
21401;BME280;18038;50.166;18.908;2022-07-19T10:39:36;98581.91;;;32.11;18.82
21401;BME280;18038;50.166;18.908;2022-07-19T10:43:15;98580.22;;;31.67;18.66
21401;BME280;18038;50.166;18.908;2022-07-19T10:46:30;98575.84;;;31.83;20.06
21401;BME280;18038;50.166;18.908;2022-07-19T10:49:42;98580.38;;;32.75;19.26
21401;BME280;18038;50.166;18.908;2022-07-19T10:52:53;98580.03;;;32.85;18.45
21401;BME280;18038;50.166;18.908;2022-07-19T10:56:14;98570.81;;;32.63;19.12
21401;BME280;18038;50.166;18.908;2022-07-19T10:59:41;98580.25;;;32.45;19.18
21401;BME280;18038;50.166;18.908;2022-07-19T11:02:48;98577.06;;;32.99;19.29
21401;BME280;18038;50.166;18.908;2022-07-19T11:05:58;98570.41;;;32.91;19.77
21401;BME280;18038;50.166;18.908;2022-07-19T11:09:09;98569.72;;;33.12;19.78
21401;BME280;18038;50.166;18.908;2022-07-19T11:12:32;98567.97;;;32.98;18.91
21401;BME280;18038;50.166;18.908;2022-07-19T11:15:54;98559.59;;;32.42;18.86
21401;BME280;18038;50.166;18.908;2022-07-19T11:19:04;98561.91;;;32.58;20.31
21401;BME280;18038;50.166;18.908;2022-07-19T11:22:11;98559.72;;;32.81;19.78
21401;BME280;18038;50.166;18.908;2022-07-19T11:25:28;98562.88;;;33.18;18.46
21401;BME280;18038;50.166;18.908;2022-07-19T11:28:40;98556.31;;;33.31;19.54
21401;BME280;18038;50.166;18.908;2022-07-19T11:31:51;98559.44;;;33.50;18.52
21401;BME280;18038;50.166;18.908;2022-07-19T11:35:02;98557.03;;;33.10;18.58
21401;BME280;18038;50.166;18.908;2022-07-19T11:38:09;98557.44;;;33.30;17.73
21401;BME280;18038;50.166;18.908;2022-07-19T11:41:19;98552.59;;;32.54;18.26
21401;BME280;18038;50.166;18.908;2022-07-19T11:44:27;98545.78;;;31.82;19.77
21401;BME280;18038;50.166;18.908;2022-07-19T11:47:34;98553.13;;;32.21;18.72
21401;BME280;18038;50.166;18.908;2022-07-19T11:50:46;98552.97;;;32.09;20.79
21401;BME280;18038;50.166;18.908;2022-07-19T11:54:14;98544.09;;;32.85;19.11
21401;BME280;18038;50.166;18.908;2022-07-19T11:57:26;98542.19;;;32.68;18.83
21401;BME280;18038;50.166;18.908;2022-07-19T12:00:38;98549.56;;;32.94;20.00
21401;BME280;18038;50.166;18.908;2022-07-19T12:03:54;98539.84;;;32.87;18.98
21401;BME280;18038;50.166;18.908;2022-07-19T12:07:03;98532.88;;;32.81;18.41
21401;BME280;18038;50.166;18.908;2022-07-19T12:10:08;98532.81;;;33.07;18.32
21401;BME280;18038;50.166;18.908;2022-07-19T12:13:31;98539.25;;;33.20;19.62
21401;BME280;18038;50.166;18.908;2022-07-19T12:16:39;98532.28;;;33.05;18.69
21401;BME280;18038;50.166;18.908;2022-07-19T12:19:46;98527.94;;;32.96;19.02
21401;BME280;18038;50.166;18.908;2022-07-19T12:22:54;98525.16;;;33.04;18.79
21401;BME280;18038;50.166;18.908;2022-07-19T12:26:02;98525.31;;;33.08;19.25
21401;BME280;18038;50.166;18.908;2022-07-19T12:29:34;98521.25;;;31.97;19.53
21401;BME280;18038;50.166;18.908;2022-07-19T12:32:42;98526.28;;;31.12;21.22
21401;BME280;18038;50.166;18.908;2022-07-19T12:35:54;98512.53;;;31.29;20.33
21401;BME280;18038;50.166;18.908;2022-07-19T12:39:02;98507.66;;;30.86;21.90
21401;BME280;18038;50.166;18.908;2022-07-19T12:42:08;98510.28;;;30.60;21.30
21401;BME280;18038;50.166;18.908;2022-07-19T12:45:22;98513.31;;;29.69;21.62
21401;BME280;18038;50.166;18.908;2022-07-19T12:48:30;98521.00;;;29.03;23.65
21401;BME280;18038;50.166;18.908;2022-07-19T12:51:38;98507.91;;;29.63;21.93
21401;BME280;18038;50.166;18.908;2022-07-19T12:54:47;98503.84;;;29.97;23.07
21401;BME280;18038;50.166;18.908;2022-07-19T12:57:53;98505.69;;;30.24;21.55
21401;BME280;18038;50.166;18.908;2022-07-19T13:01:03;98504.31;;;30.44;23.53
21401;BME280;18038;50.166;18.908;2022-07-19T13:04:11;98499.97;;;30.43;21.69
21401;BME280;18038;50.166;18.908;2022-07-19T13:07:16;98504.03;;;30.23;22.23
21401;BME280;18038;50.166;18.908;2022-07-19T13:10:22;98494.34;;;30.03;21.92
21401;BME280;18038;50.166;18.908;2022-07-19T13:13:28;98485.75;;;30.05;22.29
21401;BME280;18038;50.166;18.908;2022-07-19T13:16:37;98486.09;;;30.03;22.79
21401;BME280;18038;50.166;18.908;2022-07-19T13:19:43;98488.13;;;29.98;22.91
21401;BME280;18038;50.166;18.908;2022-07-19T13:22:49;98482.41;;;29.94;22.00
21401;BME280;18038;50.166;18.908;2022-07-19T13:25:54;98492.38;;;29.68;21.85
21401;BME280;18038;50.166;18.908;2022-07-19T13:29:00;98489.91;;;29.80;22.01
21401;BME280;18038;50.166;18.908;2022-07-19T13:32:08;98486.03;;;29.81;23.27
21401;BME280;18038;50.166;18.908;2022-07-19T13:35:15;98478.75;;;29.62;22.13
21401;BME280;18038;50.166;18.908;2022-07-19T13:38:26;98491.63;;;29.26;22.62
21401;BME280;18038;50.166;18.908;2022-07-19T13:41:31;98481.94;;;29.56;23.03
21401;BME280;18038;50.166;18.908;2022-07-19T13:44:47;98477.75;;;29.31;22.17
21401;BME280;18038;50.166;18.908;2022-07-19T13:47:55;98473.91;;;28.76;22.19
21401;BME280;18038;50.166;18.908;2022-07-19T13:51:02;98470.22;;;28.67;22.69
21401;BME280;18038;50.166;18.908;2022-07-19T13:54:14;98463.72;;;28.91;23.21
21401;BME280;18038;50.166;18.908;2022-07-19T13:57:20;98460.91;;;28.96;22.40
21401;BME280;18038;50.166;18.908;2022-07-19T14:00:27;98466.91;;;28.98;23.11
21401;BME280;18038;50.166;18.908;2022-07-19T14:03:35;98465.88;;;29.22;23.06
21401;BME280;18038;50.166;18.908;2022-07-19T14:06:46;98454.66;;;29.32;23.04
21401;BME280;18038;50.166;18.908;2022-07-19T14:09:51;98454.66;;;29.32;23.22
21401;BME280;18038;50.166;18.908;2022-07-19T14:13:00;98458.97;;;29.47;23.24
21401;BME280;18038;50.166;18.908;2022-07-19T14:16:32;98450.72;;;29.47;23.61
21401;BME280;18038;50.166;18.908;2022-07-19T14:19:40;98453.41;;;29.38;22.16
21401;BME280;18038;50.166;18.908;2022-07-19T14:22:47;98452.78;;;29.05;22.30
21401;BME280;18038;50.166;18.908;2022-07-19T14:25:53;98447.31;;;28.86;22.60
21401;BME280;18038;50.166;18.908;2022-07-19T14:29:04;98451.00;;;29.23;24.04
21401;BME280;18038;50.166;18.908;2022-07-19T14:32:10;98442.38;;;29.15;22.72
21401;BME280;18038;50.166;18.908;2022-07-19T14:35:18;98436.13;;;29.24;23.26
21401;BME280;18038;50.166;18.908;2022-07-19T14:38:27;98435.00;;;29.25;22.84
21401;BME280;18038;50.166;18.908;2022-07-19T14:41:33;98433.28;;;29.29;23.36
21401;BME280;18038;50.166;18.908;2022-07-19T14:44:44;98433.47;;;29.32;23.62
21401;BME280;18038;50.166;18.908;2022-07-19T14:47:50;98430.25;;;29.39;23.17
21401;BME280;18038;50.166;18.908;2022-07-19T14:50:59;98424.28;;;29.23;22.25
21401;BME280;18038;50.166;18.908;2022-07-19T14:54:05;98437.63;;;29.30;22.78
21401;BME280;18038;50.166;18.908;2022-07-19T14:57:19;98423.84;;;29.44;22.82
21401;BME280;18038;50.166;18.908;2022-07-19T15:00:25;98436.78;;;29.43;22.28
21401;BME280;18038;50.166;18.908;2022-07-19T15:03:32;98424.63;;;29.22;21.80
21401;BME280;18038;50.166;18.908;2022-07-19T15:06:44;98428.91;;;28.72;23.49
21401;BME280;18038;50.166;18.908;2022-07-19T15:09:50;98424.63;;;28.80;22.78
21401;BME280;18038;50.166;18.908;2022-07-19T15:12:55;98428.22;;;29.08;22.53
21401;BME280;18038;50.166;18.908;2022-07-19T15:16:15;98424.72;;;29.16;22.15
21401;BME280;18038;50.166;18.908;2022-07-19T15:19:21;98416.09;;;28.95;23.51
21401;BME280;18038;50.166;18.908;2022-07-19T15:22:30;98419.41;;;29.20;22.97
21401;BME280;18038;50.166;18.908;2022-07-19T15:25:37;98417.41;;;29.12;23.13
21401;BME280;18038;50.166;18.908;2022-07-19T15:28:45;98411.91;;;28.84;22.54
21401;BME280;18038;50.166;18.908;2022-07-19T15:31:52;98419.13;;;28.52;23.72
21401;BME280;18038;50.166;18.908;2022-07-19T15:34:58;98415.16;;;28.45;23.45
21401;BME280;18038;50.166;18.908;2022-07-19T15:38:09;98416.09;;;28.68;24.39
21401;BME280;18038;50.166;18.908;2022-07-19T15:41:18;98413.44;;;28.90;24.00
21401;BME280;18038;50.166;18.908;2022-07-19T15:44:33;98407.41;;;28.88;23.47
21401;BME280;18038;50.166;18.908;2022-07-19T15:47:39;98411.81;;;28.89;23.99
21401;BME280;18038;50.166;18.908;2022-07-19T15:50:46;98398.59;;;29.05;23.03
21401;BME280;18038;50.166;18.908;2022-07-19T15:54:00;98401.59;;;29.17;23.72
21401;BME280;18038;50.166;18.908;2022-07-19T15:57:20;98390.88;;;29.30;23.43
21401;BME280;18038;50.166;18.908;2022-07-19T16:00:27;98397.88;;;29.36;22.82
21401;BME280;18038;50.166;18.908;2022-07-19T16:03:36;98400.06;;;29.25;23.04
21401;BME280;18038;50.166;18.908;2022-07-19T16:06:42;98397.16;;;29.08;22.79
21401;BME280;18038;50.166;18.908;2022-07-19T16:09:50;98396.75;;;28.87;23.21
21401;BME280;18038;50.166;18.908;2022-07-19T16:12:57;98392.69;;;28.98;22.26
21401;BME280;18038;50.166;18.908;2022-07-19T16:16:08;98384.72;;;29.10;22.60
21401;BME280;18038;50.166;18.908;2022-07-19T16:19:14;98391.44;;;29.04;23.71
21401;BME280;18038;50.166;18.908;2022-07-19T16:22:20;98372.06;;;29.09;24.07
21401;BME280;18038;50.166;18.908;2022-07-19T16:25:37;98374.94;;;29.04;23.61
21401;BME280;18038;50.166;18.908;2022-07-19T16:28:43;98380.66;;;28.94;23.16
21401;BME280;18038;50.166;18.908;2022-07-19T16:31:50;98374.72;;;29.14;24.05
21401;BME280;18038;50.166;18.908;2022-07-19T16:34:56;98375.56;;;29.01;24.17